createdAt,value
2022-11-22T00:01:40.842Z,83.62
2022-11-22T00:04:07.538Z,83.99
2022-11-22T00:06:34.359Z,86.50
2022-11-22T00:09:01.020Z,87.61
2022-11-22T00:11:27.766Z,89.06
2022-11-22T00:13:54.516Z,87.30
2022-11-22T00:16:21.192Z,86.99
2022-11-22T00:18:47.897Z,88.80
2022-11-22T00:21:14.517Z,88.38
2022-11-22T00:23:41.244Z,90.69
2022-11-22T00:26:12.285Z,90.24
2022-11-22T00:28:39.908Z,92.05
2022-11-22T00:31:06.525Z,89.96
2022-11-22T00:33:33.608Z,87.06
2022-11-22T00:36:00.628Z,85.46
2022-11-22T00:38:27.396Z,84.58
2022-11-22T00:40:54.577Z,85.96
2022-11-22T00:43:21.486Z,84.39
2022-11-22T00:45:48.257Z,87.12
2022-11-22T00:48:15.878Z,85.05
2022-11-22T00:50:42.686Z,84.44
2022-11-22T00:53:09.787Z,85.98
2022-11-22T00:55:36.481Z,86.16
2022-11-22T00:58:03.497Z,87.00
2022-11-22T01:00:30.194Z,86.44
2022-11-22T01:02:56.918Z,85.18
2022-11-22T01:05:23.707Z,87.96
2022-11-22T01:07:50.482Z,89.13
2022-11-22T01:10:17.143Z,85.75
2022-11-22T01:12:43.831Z,89.22
2022-11-22T01:15:11.159Z,87.57
2022-11-22T01:17:37.810Z,88.63
2022-11-22T01:20:05.025Z,90.62
2022-11-22T01:22:31.704Z,91.75
2022-11-22T01:24:58.455Z,90.42
2022-11-22T01:27:25.074Z,90.57
2022-11-22T01:29:51.774Z,88.57
2022-11-22T01:32:18.466Z,90.19
2022-11-22T01:34:45.168Z,90.91
2022-11-22T01:37:11.785Z,90.70
2022-11-22T01:39:39.922Z,90.61
2022-11-22T01:42:06.656Z,89.64
2022-11-22T01:44:33.840Z,91.13
2022-11-22T01:47:06.466Z,90.86
2022-11-22T01:49:40.729Z,89.36
2022-11-22T01:52:09.064Z,90.66
2022-11-22T01:54:38.692Z,90.01
2022-11-22T01:57:08.328Z,91.56
2022-11-22T01:59:37.334Z,92.34
2022-11-22T02:02:04.563Z,91.64
2022-11-22T02:04:32.751Z,89.84
2022-11-22T02:07:07.557Z,90.78
2022-11-22T02:09:34.713Z,90.61
2022-11-22T02:12:02.910Z,90.98
2022-11-22T02:14:30.327Z,90.61
2022-11-22T02:16:57.275Z,90.26
2022-11-22T02:19:30.799Z,89.27
2022-11-22T02:22:00.842Z,87.18
2022-11-22T02:24:32.072Z,85.14
2022-11-22T02:26:58.720Z,83.87
2022-11-22T02:29:25.677Z,82.51
2022-11-22T02:31:52.276Z,81.59
2022-11-22T02:34:19.009Z,81.20
2022-11-22T02:36:50.596Z,80.16
2022-11-22T02:39:19.436Z,79.72
2022-11-22T02:41:46.289Z,78.61
2022-11-22T02:44:13.742Z,79.52
2022-11-22T02:46:48.317Z,78.77
2022-11-22T02:49:16.688Z,83.52
2022-11-22T02:51:43.338Z,80.63
2022-11-22T02:54:10.135Z,78.76
2022-11-22T02:56:36.847Z,78.09
2022-11-22T02:59:03.505Z,76.92
2022-11-22T03:01:30.628Z,76.56
2022-11-22T03:03:57.308Z,75.93
2022-11-22T03:06:24.085Z,74.97
2022-11-22T03:08:55.905Z,75.58
2022-11-22T03:11:23.368Z,78.65
2022-11-22T03:13:50.050Z,80.91
2022-11-22T03:16:16.700Z,81.43
2022-11-22T03:18:43.382Z,78.74
2022-11-22T03:21:10.691Z,81.78
2022-11-22T03:23:37.629Z,82.95
2022-11-22T03:26:10.959Z,82.67
2022-11-22T03:28:37.663Z,84.94
2022-11-22T03:31:07.644Z,84.15
2022-11-22T03:33:34.990Z,85.18
2022-11-22T03:36:01.726Z,85.00
2022-11-22T03:38:28.566Z,85.81
2022-11-22T03:40:55.579Z,84.43
2022-11-22T03:43:22.521Z,86.70
2022-11-22T03:46:14.212Z,87.92
2022-11-22T03:48:41.499Z,86.75
2022-11-22T03:51:08.437Z,86.04
2022-11-22T03:53:35.167Z,87.58
2022-11-22T03:56:03.226Z,86.49
2022-11-22T03:58:30.168Z,86.70
2022-11-22T04:01:01.824Z,86.22
2022-11-22T04:03:31.342Z,85.82
2022-11-22T04:06:03.888Z,88.79
2022-11-22T04:08:30.718Z,86.38
2022-11-22T04:11:01.640Z,86.65
2022-11-22T04:13:48.401Z,86.10
2022-11-22T04:16:19.578Z,86.68
2022-11-22T04:18:46.337Z,87.74
2022-11-22T04:21:36.758Z,85.65
2022-11-22T04:24:28.348Z,84.84
2022-11-22T04:26:55.446Z,84.18
2022-11-22T04:29:22.504Z,83.37
2022-11-22T04:32:08.332Z,82.68
2022-11-22T04:34:35.095Z,83.76
2022-11-22T04:37:01.924Z,83.74
2022-11-22T04:39:29.148Z,82.23
2022-11-22T04:42:15.502Z,81.57
2022-11-22T04:44:42.924Z,82.57
2022-11-22T04:47:10.185Z,83.18
2022-11-22T04:49:37.059Z,82.38
2022-11-22T04:52:22.646Z,83.42
2022-11-22T04:54:49.315Z,84.65
2022-11-22T04:57:16.135Z,84.25
2022-11-22T04:59:42.820Z,85.16
2022-11-22T05:02:09.581Z,85.86
2022-11-22T05:04:36.481Z,87.25
2022-11-22T05:07:03.400Z,87.60
2022-11-22T05:09:30.415Z,86.04
2022-11-22T05:11:57.434Z,87.76
2022-11-22T05:14:24.125Z,84.44
2022-11-22T05:16:50.842Z,83.63
2022-11-22T05:19:17.547Z,82.16
2022-11-22T05:21:44.216Z,81.89
2022-11-22T05:24:10.948Z,80.24
2022-11-22T05:26:37.703Z,81.41
2022-11-22T05:29:08.754Z,82.63
2022-11-22T05:31:36.469Z,82.31
2022-11-22T05:34:04.114Z,81.48
2022-11-22T05:36:32.061Z,80.81
2022-11-22T05:39:08.394Z,82.14
2022-11-22T05:41:56.024Z,83.71
2022-11-22T05:44:24.208Z,83.11
2022-11-22T05:46:50.880Z,82.47
2022-11-22T05:49:17.821Z,83.91
2022-11-22T05:51:44.937Z,82.23
2022-11-22T05:54:11.907Z,84.96
2022-11-22T05:56:38.802Z,81.05
2022-11-22T05:59:05.720Z,79.89
2022-11-22T06:01:32.394Z,79.32
2022-11-22T06:03:59.049Z,80.23
2022-11-22T06:06:25.867Z,80.35
2022-11-22T06:08:52.576Z,79.85
2022-11-22T06:11:19.226Z,79.82
2022-11-22T06:13:46.899Z,79.40
2022-11-22T06:16:14.011Z,81.07
2022-11-22T06:18:40.799Z,79.30
2022-11-22T06:21:26.058Z,79.84
2022-11-22T06:23:56.423Z,79.91
2022-11-22T06:26:23.948Z,79.16
2022-11-22T06:28:51.257Z,79.64
2022-11-22T06:31:38.035Z,82.66
2022-11-22T06:34:25.947Z,82.49
2022-11-22T06:37:14.874Z,81.83
2022-11-22T06:39:47.030Z,84.56
2022-11-22T06:42:13.990Z,83.93
2022-11-22T06:44:40.777Z,81.88
2022-11-22T06:47:07.911Z,81.82
2022-11-22T06:49:35.673Z,82.31
2022-11-22T06:52:02.632Z,83.00
2022-11-22T06:54:33.931Z,82.59
2022-11-22T06:57:00.909Z,81.78
2022-11-22T06:59:28.310Z,81.63
2022-11-22T07:02:02.930Z,82.66
2022-11-22T07:04:33.503Z,80.57
2022-11-22T07:07:00.318Z,79.83
2022-11-22T07:09:40.680Z,80.51
2022-11-22T07:12:07.908Z,81.96
2022-11-22T07:14:34.630Z,82.26
2022-11-22T07:17:01.426Z,80.35
2022-11-22T07:19:36.662Z,81.31
2022-11-22T07:22:03.425Z,82.81
2022-11-22T07:24:30.692Z,83.16
2022-11-22T07:26:57.464Z,82.45
2022-11-22T07:29:25.362Z,81.84
2022-11-22T07:31:56.176Z,82.55
2022-11-22T07:34:26.224Z,80.72
2022-11-22T07:37:12.957Z,79.90
2022-11-22T07:39:41.926Z,80.17
2022-11-22T07:42:08.744Z,81.54
2022-11-22T07:44:35.865Z,79.83
2022-11-22T07:47:03.408Z,78.72
2022-11-22T07:49:34.463Z,79.84
2022-11-22T07:52:01.327Z,79.40
2022-11-22T07:54:33.578Z,77.85
2022-11-22T07:57:00.351Z,78.99
2022-11-22T07:59:27.884Z,77.12
2022-11-22T08:01:55.700Z,77.42
2022-11-22T08:04:22.637Z,76.67
2022-11-22T08:06:49.290Z,74.88
2022-11-22T08:09:15.968Z,74.19
2022-11-22T08:11:42.632Z,73.61
2022-11-22T08:14:09.320Z,74.39
2022-11-22T08:16:35.973Z,74.64
2022-11-22T08:19:02.765Z,73.68
2022-11-22T08:21:29.964Z,73.00
2022-11-22T08:23:59.888Z,72.46
2022-11-22T08:26:26.948Z,71.50
2022-11-22T08:28:54.280Z,71.54
2022-11-22T08:31:21.101Z,70.52
2022-11-22T08:33:48.725Z,70.93
2022-11-22T08:36:15.651Z,70.73
2022-11-22T08:38:42.429Z,68.96
2022-11-22T08:41:09.102Z,68.28
2022-11-22T08:43:35.998Z,68.60
2022-11-22T08:46:03.135Z,71.58
2022-11-22T08:48:30.769Z,72.06
2022-11-22T08:50:59.193Z,72.19
2022-11-22T08:53:26.385Z,73.56
2022-11-22T08:55:53.579Z,73.88
2022-11-22T08:58:22.865Z,74.99
2022-11-22T09:00:49.712Z,72.81
2022-11-22T09:03:16.407Z,73.49
2022-11-22T09:08:32.801Z,73.35
2022-11-22T09:11:04.188Z,73.20
2022-11-22T09:13:30.869Z,72.94
2022-11-22T09:16:05.396Z,72.43
2022-11-22T09:18:32.102Z,75.22
2022-11-22T09:20:59.591Z,74.92
2022-11-22T09:23:26.583Z,73.58
2022-11-22T09:26:00.286Z,72.70
2022-11-22T09:28:27.751Z,73.12
2022-11-22T09:31:01.690Z,72.49
2022-11-22T09:33:29.272Z,72.18
2022-11-22T09:36:00.525Z,73.44
2022-11-22T09:38:27.542Z,72.85
2022-11-22T09:40:54.208Z,70.90
2022-11-22T09:43:20.851Z,72.41
2022-11-22T09:45:54.799Z,72.82
2022-11-22T09:48:24.501Z,71.91
2022-11-22T09:50:54.370Z,71.43
2022-11-22T09:53:25.505Z,72.12
2022-11-22T09:55:54.203Z,71.55
2022-11-22T09:58:39.400Z,71.81
2022-11-22T10:01:12.059Z,71.97
2022-11-22T10:03:52.672Z,70.13
2022-11-22T10:06:32.316Z,71.54
2022-11-22T10:09:08.229Z,70.42
2022-11-22T10:11:55.141Z,69.96
2022-11-22T10:14:40.724Z,69.12
2022-11-22T10:17:20.000Z,71.06
2022-11-22T10:20:04.961Z,69.80
2022-11-22T10:22:32.861Z,70.88
2022-11-22T10:25:00.489Z,69.98
2022-11-22T10:27:32.057Z,69.58
2022-11-22T10:30:14.318Z,69.69
2022-11-22T10:32:45.430Z,70.84
2022-11-22T10:35:12.106Z,69.81
2022-11-22T10:37:39.375Z,71.68
2022-11-22T10:40:09.261Z,71.79
2022-11-22T10:42:54.858Z,70.74
2022-11-22T10:45:21.479Z,70.62
2022-11-22T10:47:57.896Z,69.46
2022-11-22T10:50:43.275Z,69.43
2022-11-22T10:53:19.130Z,68.37
2022-11-22T10:56:09.401Z,69.15
2022-11-22T10:58:42.358Z,69.02
2022-11-22T11:01:15.700Z,67.93
2022-11-22T11:03:44.516Z,69.50
2022-11-22T11:06:26.527Z,68.56
2022-11-22T11:11:54.979Z,67.25
2022-11-22T11:14:21.911Z,67.84
2022-11-22T11:16:49.430Z,68.25
2022-11-22T11:19:24.727Z,69.58
2022-11-22T11:21:58.673Z,69.55
2022-11-22T11:24:29.186Z,69.56
2022-11-22T11:27:11.859Z,69.82
2022-11-22T11:29:43.451Z,70.16
2022-11-22T11:32:12.645Z,70.56
2022-11-22T11:34:42.736Z,70.18
2022-11-22T11:37:17.441Z,69.93
2022-11-22T11:39:48.300Z,70.73
2022-11-22T11:42:31.731Z,70.44
2022-11-22T11:45:18.591Z,70.10
2022-11-22T11:47:45.649Z,70.87
2022-11-22T11:50:31.856Z,68.82
2022-11-22T11:53:07.059Z,69.72
2022-11-22T11:55:34.954Z,69.75
2022-11-22T11:58:03.773Z,70.19
2022-11-22T12:00:39.153Z,69.89
2022-11-22T12:03:07.608Z,69.14
2022-11-22T12:05:35.449Z,70.91
2022-11-22T12:08:02.381Z,70.43
2022-11-22T12:10:41.531Z,70.96
2022-11-22T12:13:28.100Z,72.54
2022-11-22T12:15:56.742Z,72.78
2022-11-22T12:18:39.336Z,73.21
2022-11-22T12:21:13.271Z,72.14
2022-11-22T12:23:50.709Z,73.11
2022-11-22T12:26:18.100Z,73.35
2022-11-22T12:28:44.982Z,72.63
2022-11-22T12:31:29.922Z,72.64
2022-11-22T12:33:59.090Z,71.53
2022-11-22T12:36:35.057Z,72.21
2022-11-22T12:39:03.148Z,70.51
2022-11-22T12:41:32.440Z,69.42
2022-11-22T12:44:03.810Z,68.32
2022-11-22T12:46:39.721Z,68.93
2022-11-22T12:49:24.652Z,69.53
2022-11-22T12:51:51.373Z,69.36
2022-11-22T12:54:21.946Z,70.38
2022-11-22T12:56:57.231Z,70.03
2022-11-22T12:59:36.500Z,70.40
2022-11-22T13:02:26.850Z,70.23
2022-11-22T13:05:01.981Z,70.46
2022-11-22T13:07:34.266Z,69.61
2022-11-22T13:10:09.594Z,67.98
2022-11-22T13:12:38.460Z,69.35
2022-11-22T13:15:05.448Z,69.31
2022-11-22T13:17:36.512Z,69.65
2022-11-22T13:20:06.421Z,69.56
2022-11-22T13:22:36.016Z,69.30
2022-11-22T13:25:16.811Z,70.22
2022-11-22T13:27:45.458Z,71.76
2022-11-22T13:30:20.377Z,71.29
2022-11-22T13:32:49.520Z,70.24
2022-11-22T13:35:16.170Z,70.99
2022-11-22T13:37:47.569Z,71.21
2022-11-22T13:40:17.601Z,71.08
2022-11-22T13:42:44.501Z,70.10
2022-11-22T13:45:20.895Z,69.65
2022-11-22T13:47:47.834Z,68.38
2022-11-22T13:50:33.417Z,67.67
2022-11-22T13:53:15.914Z,71.06
2022-11-22T13:55:43.117Z,71.29
2022-11-22T13:58:18.268Z,70.75
2022-11-22T14:00:45.133Z,72.47
2022-11-22T14:03:19.047Z,72.42
2022-11-22T14:05:50.475Z,71.67
2022-11-22T14:08:35.551Z,73.10
2022-11-22T14:11:02.249Z,73.88
2022-11-22T14:13:39.212Z,73.99
2022-11-22T14:16:12.001Z,73.26
2022-11-22T14:18:52.266Z,74.43
2022-11-22T14:21:37.902Z,74.85
2022-11-22T14:24:14.057Z,74.63
2022-11-22T14:26:59.231Z,75.15
2022-11-22T14:29:50.743Z,74.07
2022-11-22T14:32:21.815Z,74.73
2022-11-22T14:35:03.914Z,74.70
2022-11-22T14:37:34.402Z,75.37
2022-11-22T14:40:03.887Z,75.30
2022-11-22T14:42:47.723Z,73.90
2022-11-22T14:45:27.271Z,73.63
2022-11-22T14:47:54.069Z,76.22
2022-11-22T14:50:29.249Z,76.36
2022-11-22T14:52:57.660Z,77.47
2022-11-22T14:55:26.665Z,77.79
2022-11-22T14:58:04.498Z,78.36
2022-11-22T15:01:02.844Z,78.79
2022-11-22T15:03:48.439Z,77.93
2022-11-22T15:09:14.437Z,79.67
2022-11-22T15:09:53.287Z,78.44
2022-11-22T15:12:06.893Z,80.55
2022-11-22T15:14:52.705Z,80.19
2022-11-22T15:57:38.001Z,80.24
2022-11-22T16:00:19.265Z,79.92
2022-11-22T16:02:49.329Z,79.09
2022-11-22T16:06:06.705Z,80.82
2022-11-22T16:08:13.533Z,81.04
2022-11-22T16:10:43.009Z,81.78
2022-11-22T16:13:14.151Z,81.52
2022-11-22T16:15:41.138Z,81.87
2022-11-22T16:18:10.789Z,82.76
2022-11-22T16:20:41.388Z,83.11
2022-11-22T16:23:12.085Z,83.07
2022-11-22T16:25:39.891Z,84.35
2022-11-22T16:28:18.826Z,84.62
2022-11-22T16:30:47.428Z,84.34
2022-11-22T16:33:34.740Z,84.42
2022-11-22T16:36:20.832Z,84.98
2022-11-22T16:38:47.973Z,84.70
2022-11-22T16:41:36.434Z,85.13
2022-11-22T16:44:22.121Z,86.23
2022-11-22T16:46:49.888Z,84.88
2022-11-22T16:49:18.976Z,84.71
2022-11-22T16:51:46.898Z,85.00
2022-11-22T16:54:21.153Z,86.02
2022-11-22T16:56:50.141Z,86.65
2022-11-22T16:59:21.498Z,85.77
2022-11-22T17:01:48.516Z,85.46
2022-11-22T17:04:21.745Z,87.16
2022-11-22T17:06:49.018Z,87.31
2022-11-22T17:09:21.334Z,88.23
2022-11-22T17:11:48.137Z,88.75
2022-11-22T17:14:16.226Z,87.86
2022-11-22T17:16:43.392Z,87.84
2022-11-22T17:19:24.210Z,87.93
2022-11-22T17:21:57.135Z,86.67
2022-11-22T17:24:24.171Z,87.57
2022-11-22T17:26:50.955Z,87.44
2022-11-22T17:29:48.802Z,88.93
2022-11-22T17:32:05.188Z,88.16
2022-11-22T17:34:32.320Z,87.19
2022-11-22T17:36:59.282Z,86.61
2022-11-22T17:39:26.358Z,88.68
2022-11-22T17:41:53.049Z,90.58
2022-11-22T17:44:19.841Z,89.22
2022-11-22T17:46:47.492Z,88.69
2022-11-22T17:49:16.183Z,89.24
2022-11-22T17:51:43.747Z,88.32
2022-11-22T17:54:10.535Z,89.82
2022-11-22T17:56:39.200Z,90.39
2022-11-22T17:59:06.511Z,91.19
2022-11-22T18:01:33.329Z,90.66
2022-11-22T18:04:00.104Z,90.33
2022-11-22T18:06:27.277Z,88.63
2022-11-22T18:08:54.103Z,91.71
2022-11-22T18:11:21.087Z,90.17
2022-11-22T18:13:47.942Z,91.77
2022-11-22T18:16:18.748Z,91.02
2022-11-22T18:19:01.110Z,90.23
2022-11-22T18:21:29.790Z,89.82
2022-11-22T18:24:00.555Z,88.72
2022-11-22T18:26:43.121Z,89.83
2022-11-22T18:29:41.073Z,87.91
2022-11-22T18:31:57.572Z,88.22
2022-11-22T18:34:24.669Z,88.64
2022-11-22T18:36:57.561Z,88.52
2022-11-22T18:39:27.709Z,90.05
2022-11-22T18:41:55.752Z,89.26
2022-11-22T18:44:22.508Z,90.28
2022-11-22T18:46:49.523Z,90.57
2022-11-22T18:49:36.660Z,90.44
2022-11-22T18:52:04.985Z,90.71
2022-11-22T18:54:34.228Z,91.67
2022-11-22T18:57:01.628Z,90.56
2022-11-22T18:59:28.713Z,90.96
2022-11-22T19:01:55.957Z,90.94
2022-11-22T19:04:22.737Z,90.55
2022-11-22T19:06:49.553Z,88.87
2022-11-22T19:09:16.657Z,91.32
2022-11-22T19:11:43.487Z,91.54
2022-11-22T19:14:10.588Z,90.01
2022-11-22T19:16:42.224Z,89.07
2022-11-22T19:19:10.804Z,90.47
2022-11-22T19:21:37.535Z,89.04
2022-11-22T19:24:04.696Z,90.08
2022-11-22T19:26:31.684Z,89.31
2022-11-22T19:29:00.074Z,90.87
2022-11-22T19:31:29.611Z,90.38
2022-11-22T19:33:56.489Z,90.23
2022-11-22T19:36:44.110Z,89.85
2022-11-22T19:39:17.499Z,89.13
2022-11-22T19:41:44.865Z,89.48
2022-11-22T19:44:31.844Z,89.34
2022-11-22T19:46:58.648Z,89.90
2022-11-22T19:49:25.911Z,89.76
2022-11-22T19:51:52.641Z,89.64
2022-11-22T19:54:19.477Z,88.49
2022-11-22T19:56:46.644Z,89.55
2022-11-22T19:59:16.456Z,89.83
2022-11-22T20:01:43.273Z,87.92
2022-11-22T20:04:12.767Z,90.47
2022-11-22T20:06:40.330Z,89.12
2022-11-22T20:09:11.246Z,89.68
2022-11-22T20:11:38.453Z,89.14
2022-11-22T20:14:05.453Z,92.08
2022-11-22T20:16:35.087Z,90.73
2022-11-22T20:19:02.898Z,91.08
2022-11-22T20:21:31.622Z,90.85
2022-11-22T20:23:58.907Z,90.56
2022-11-22T20:26:25.768Z,92.08
2022-11-22T20:28:56.642Z,90.28
2022-11-22T20:31:24.057Z,91.05
2022-11-22T20:33:52.291Z,89.68
2022-11-22T20:36:19.298Z,92.47
2022-11-22T20:38:46.877Z,92.12
2022-11-22T20:41:14.816Z,90.67
2022-11-22T20:43:41.751Z,89.91
2022-11-22T20:46:10.337Z,90.43
2022-11-22T20:48:37.632Z,90.99
2022-11-22T20:51:06.017Z,89.18
2022-11-22T20:53:33.152Z,89.03
2022-11-22T20:55:59.997Z,89.33
2022-11-22T20:58:27.008Z,89.19
2022-11-22T21:00:54.159Z,87.98
2022-11-22T21:03:21.336Z,89.29
2022-11-22T21:05:52.445Z,88.07
2022-11-22T21:08:19.614Z,87.58
2022-11-22T21:10:47.065Z,87.29
2022-11-22T21:13:13.890Z,87.35
2022-11-22T21:15:41.941Z,88.75
2022-11-22T21:18:24.597Z,87.05
2022-11-22T21:20:54.460Z,90.40
2022-11-22T21:23:21.497Z,90.88
2022-11-22T21:26:08.095Z,90.26
2022-11-22T21:28:40.790Z,88.15
2022-11-22T21:31:09.805Z,86.51
2022-11-22T21:33:37.234Z,89.66
2022-11-22T21:36:24.034Z,88.29
2022-11-22T21:39:00.311Z,88.42
2022-11-22T21:41:47.484Z,89.46
2022-11-22T21:44:15.503Z,86.91
2022-11-22T21:46:44.038Z,87.24
2022-11-22T21:49:10.968Z,86.53
2022-11-22T21:51:37.806Z,87.44
2022-11-22T21:54:04.670Z,86.18
2022-11-22T21:56:31.973Z,88.27
2022-11-22T21:58:58.769Z,88.69
2022-11-22T22:01:26.446Z,85.97
2022-11-22T22:03:53.467Z,87.04
2022-11-22T22:06:20.388Z,87.30
2022-11-22T22:08:47.081Z,88.85
2022-11-22T22:11:13.951Z,90.26
2022-11-22T22:13:40.893Z,89.58
2022-11-22T22:16:08.518Z,90.41
2022-11-22T22:18:38.143Z,87.27
2022-11-22T22:21:06.161Z,87.82
2022-11-22T22:23:36.522Z,89.67
2022-11-22T22:26:04.727Z,88.78
2022-11-22T22:28:35.496Z,89.34
2022-11-22T22:31:08.393Z,90.18
2022-11-22T22:33:35.664Z,89.77
2022-11-22T22:36:05.577Z,89.37
2022-11-22T22:38:32.500Z,90.53
2022-11-22T22:41:00.537Z,90.81
2022-11-22T22:43:31.243Z,91.46
2022-11-22T22:46:06.229Z,91.44
2022-11-22T22:48:35.759Z,92.39
2022-11-22T22:51:11.545Z,92.69
2022-11-22T22:53:38.517Z,92.10
2022-11-22T22:56:05.487Z,92.23
2022-11-22T22:58:32.303Z,92.31
2022-11-22T23:01:06.490Z,92.23
2022-11-22T23:03:33.315Z,91.82
2022-11-22T23:06:03.940Z,93.29
2022-11-22T23:08:30.707Z,91.84
2022-11-22T23:11:02.438Z,91.39
2022-11-22T23:13:29.393Z,91.46
2022-11-22T23:15:58.889Z,92.23
2022-11-22T23:18:25.950Z,92.52
2022-11-22T23:20:52.688Z,91.95
2022-11-22T23:23:19.438Z,92.51
2022-11-22T23:25:46.161Z,92.36
2022-11-22T23:28:12.870Z,92.61
2022-11-22T23:30:39.620Z,92.90
2022-11-22T23:33:06.303Z,92.12
2022-11-22T23:35:36.091Z,91.93
2022-11-22T23:38:03.096Z,92.26
2022-11-22T23:40:31.174Z,92.20
2022-11-22T23:43:01.301Z,92.12
2022-11-22T23:45:27.932Z,92.26
2022-11-22T23:47:54.646Z,92.62
2022-11-22T23:50:21.362Z,92.56
2022-11-22T23:52:48.019Z,91.41
2022-11-22T23:55:14.903Z,91.91
2022-11-22T23:57:42.716Z,92.73
